Time;durP1;ratioP1;P1;durP2;ratioP2;P2;SDS_P1;SDS_P2;PMS_P1;PMS_P2;Temp;Humidity;BMP_temperature;BMP_pressure;BME280_temperature;BME280_humidity;BME280_pressure;Samples;Min_cycle;Max_cycle;Signal;HPM_P1;HPM_P2
2022/03/28 00:00:18;;;;;;;;;43.00;34.00;;;;;;;;5017282;28;51267;-62
2022/03/28 00:02:44;;;;;;;;;42.50;36.25;;;;;;;;5027296;28;51249;-63
2022/03/28 00:05:10;;;;;;;;;39.75;33.75;;;;;;;;5027549;28;51222;-63
2022/03/28 00:07:36;;;;;;;;;41.75;37.00;;;;;;;;5024466;28;51330;-63
2022/03/28 00:10:02;;;;;;;;;39.25;34.00;;;;;;;;5010600;28;51445;-64
2022/03/28 00:12:27;;;;;;;;;37.25;34.00;;;;;;;;5021434;28;51290;-63
2022/03/28 00:14:52;;;;;;;;;24.75;22.75;;;;;;;;5022263;28;51184;-64
2022/03/28 00:17:18;;;;;;;;;42.50;35.00;;;;;;;;5029541;28;51170;-66
2022/03/28 00:19:43;;;;;;;;;33.75;31.50;;;;;;;;5029315;28;51121;-67
2022/03/28 00:22:08;;;;;;;;;36.00;33.50;;;;;;;;5023270;28;51210;-65
2022/03/28 00:24:33;;;;;;;;;38.50;35.00;;;;;;;;5022099;28;51034;-65
2022/03/28 00:26:58;;;;;;;;;41.25;32.75;;;;;;;;5029883;28;51358;-65
2022/03/28 00:29:24;;;;;;;;;38.75;35.00;;;;;;;;5029203;28;52589;-65
2022/03/28 00:31:49;;;;;;;;;39.75;34.00;;;;;;;;5030309;28;51091;-65
2022/03/28 00:34:15;;;;;;;;;37.00;33.75;;;;;;;;5030090;28;52788;-66
2022/03/28 00:36:41;;;;;;;;;38.25;34.00;;;;;;;;5029556;28;51443;-64
2022/03/28 00:39:06;;;;;;;;;36.50;34.00;;;;;;;;5019152;28;51746;-65
2022/03/28 00:41:32;;;;;;;;;41.25;34.50;;;;;;;;5022935;28;50944;-66
2022/03/28 00:43:58;;;;;;;;;35.75;31.75;;;;;;;;5025233;28;51296;-65
2022/03/28 00:46:23;;;;;;;;;34.50;31.50;;;;;;;;5030615;28;51245;-65
2022/03/28 00:48:51;;;;;;;;;35.25;32.25;;;;;;;;5029195;28;51780;-65
2022/03/28 00:51:17;;;;;;;;;36.75;34.00;;;;;;;;5024277;28;51147;-65
2022/03/28 00:53:42;;;;;;;;;34.50;31.75;;;;;;;;5028030;28;51021;-65
2022/03/28 00:56:08;;;;;;;;;35.00;31.00;;;;;;;;5035601;28;50928;-65
2022/03/28 00:58:33;;;;;;;;;33.00;31.25;;;;;;;;5019285;28;51621;-64
2022/03/28 01:00:59;;;;;;;;;33.75;32.00;;;;;;;;5023310;28;51100;-66
2022/03/28 01:03:24;;;;;;;;;31.50;29.50;;;;;;;;5026121;28;51018;-65
2022/03/28 01:05:49;;;;;;;;;41.50;37.25;;;;;;;;5028344;28;51355;-66
2022/03/28 01:08:14;;;;;;;;;33.00;31.25;;;;;;;;5028082;28;52716;-65
2022/03/28 01:10:41;;;;;;;;;26.25;24.25;;;;;;;;5036386;28;51057;-65
2022/03/28 01:13:06;;;;;;;;;33.75;32.00;;;;;;;;5028266;28;51488;-65
2022/03/28 01:15:32;;;;;;;;;34.75;33.00;;;;;;;;5028058;28;51178;-67
2022/03/28 01:18:06;;;;;;;;;41.50;35.00;;;;;;;;5026059;28;51855;-65
2022/03/28 01:20:32;;;;;;;;;45.50;38.00;;;;;;;;5025937;28;51146;-66
2022/03/28 01:22:57;;;;;;;;;39.50;34.50;;;;;;;;5025212;28;51229;-65
2022/03/28 01:25:24;;;;;;;;;39.25;35.00;;;;;;;;5033002;28;51396;-65
2022/03/28 01:27:50;;;;;;;;;45.00;37.75;;;;;;;;5033560;28;51210;-66
2022/03/28 01:30:16;;;;;;;;;43.75;37.00;;;;;;;;5028472;28;51297;-65
2022/03/28 01:32:41;;;;;;;;;44.75;36.50;;;;;;;;5033180;28;51305;-66
2022/03/28 01:35:06;;;;;;;;;43.25;37.50;;;;;;;;5031661;28;51205;-66
2022/03/28 01:37:32;;;;;;;;;47.50;37.75;;;;;;;;5019970;28;52234;-65
2022/03/28 01:39:57;;;;;;;;;40.00;35.00;;;;;;;;5029225;28;51082;-65
2022/03/28 01:42:22;;;;;;;;;46.75;39.75;;;;;;;;5032451;28;51024;-66
2022/03/28 01:44:48;;;;;;;;;42.25;35.75;;;;;;;;5030772;28;51262;-67
2022/03/28 01:47:13;;;;;;;;;46.50;38.25;;;;;;;;5026095;28;51005;-66
2022/03/28 01:49:39;;;;;;;;;40.50;35.00;;;;;;;;5033079;28;51000;-65
2022/03/28 01:52:04;;;;;;;;;46.25;37.25;;;;;;;;5031223;28;51028;-66
2022/03/28 01:54:29;;;;;;;;;42.50;35.25;;;;;;;;5033520;28;51124;-66
2022/03/28 01:56:55;;;;;;;;;44.25;38.25;;;;;;;;5031356;28;51109;-66
2022/03/28 01:59:20;;;;;;;;;42.50;33.75;;;;;;;;5033983;28;51438;-66
2022/03/28 02:01:45;;;;;;;;;49.25;40.25;;;;;;;;5032085;28;51384;-67
2022/03/28 02:04:10;;;;;;;;;46.75;36.50;;;;;;;;5026919;28;51060;-66
2022/03/28 02:06:36;;;;;;;;;44.75;38.50;;;;;;;;5032042;28;51233;-66
2022/03/28 02:09:02;;;;;;;;;43.00;38.00;;;;;;;;5031449;28;51208;-65
2022/03/28 02:11:28;;;;;;;;;43.25;34.75;;;;;;;;5023627;28;51017;-65
2022/03/28 02:13:54;;;;;;;;;42.00;36.25;;;;;;;;5032475;28;50987;-65
2022/03/28 02:16:19;;;;;;;;;47.25;39.25;;;;;;;;5018640;28;51862;-65
2022/03/28 02:18:44;;;;;;;;;46.25;39.25;;;;;;;;5030700;28;51027;-65
2022/03/28 02:21:10;;;;;;;;;49.25;39.25;;;;;;;;5034879;28;51091;-66
2022/03/28 02:23:35;;;;;;;;;43.75;38.75;;;;;;;;5032130;28;51079;-66
2022/03/28 02:26:02;;;;;;;;;48.00;38.00;;;;;;;;5031490;28;51233;-66
2022/03/28 02:28:28;;;;;;;;;48.50;39.25;;;;;;;;5031173;28;50995;-66
2022/03/28 02:30:54;;;;;;;;;52.00;42.50;;;;;;;;5031597;28;51081;-66
2022/03/28 02:33:19;;;;;;;;;51.25;42.25;;;;;;;;5030836;28;51344;-66
2022/03/28 02:35:45;;;;;;;;;50.75;41.00;;;;;;;;5031886;28;52008;-66
2022/03/28 02:38:10;;;;;;;;;43.75;38.50;;;;;;;;5029050;28;51307;-66
2022/03/28 02:40:36;;;;;;;;;50.75;41.00;;;;;;;;5029049;28;51391;-66
2022/03/28 02:43:02;;;;;;;;;48.75;38.75;;;;;;;;5032122;28;50942;-66
2022/03/28 02:45:29;;;;;;;;;46.25;40.25;;;;;;;;5029635;28;52825;-66
2022/03/28 02:47:54;;;;;;;;;46.50;39.50;;;;;;;;5029784;28;50932;-66
2022/03/28 02:50:20;;;;;;;;;52.75;42.00;;;;;;;;5032439;28;51036;-66
2022/03/28 02:52:45;;;;;;;;;48.50;39.50;;;;;;;;5026584;28;51095;-66
2022/03/28 02:55:11;;;;;;;;;47.00;39.50;;;;;;;;5028577;28;52092;-66
2022/03/28 02:57:36;;;;;;;;;52.75;42.00;;;;;;;;5030758;28;51056;-66
2022/03/28 03:00:04;;;;;;;;;47.00;39.25;;;;;;;;5030686;28;51112;-65
2022/03/28 03:02:29;;;;;;;;;45.25;39.25;;;;;;;;5023387;28;51209;-65
2022/03/28 03:04:54;;;;;;;;;50.00;40.00;;;;;;;;5027801;28;52099;-66
2022/03/28 03:07:19;;;;;;;;;49.50;41.00;;;;;;;;5030032;28;52246;-65
2022/03/28 03:09:44;;;;;;;;;55.00;43.75;;;;;;;;5014351;28;50918;-66
2022/03/28 03:12:10;;;;;;;;;50.75;41.50;;;;;;;;5019263;28;51271;-64
2022/03/28 03:14:35;;;;;;;;;50.75;42.00;;;;;;;;5027171;28;51319;-66
2022/03/28 03:17:02;;;;;;;;;53.25;42.50;;;;;;;;5030472;28;51134;-65
2022/03/28 03:19:27;;;;;;;;;48.50;39.25;;;;;;;;5027267;28;51415;-66
2022/03/28 03:21:53;;;;;;;;;49.75;42.00;;;;;;;;5031650;28;51301;-66
2022/03/28 03:24:18;;;;;;;;;51.25;42.50;;;;;;;;5029913;28;51815;-66
2022/03/28 03:26:43;;;;;;;;;50.50;39.50;;;;;;;;5029121;28;51398;-66
2022/03/28 03:29:08;;;;;;;;;50.25;41.50;;;;;;;;5025550;28;51135;-66
2022/03/28 03:31:34;;;;;;;;;51.00;41.75;;;;;;;;5030753;28;51333;-67
2022/03/28 03:33:59;;;;;;;;;56.25;43.50;;;;;;;;5028553;28;52141;-67
2022/03/28 03:36:24;;;;;;;;;56.00;43.75;;;;;;;;5029816;28;51099;-66
2022/03/28 03:38:50;;;;;;;;;52.50;43.50;;;;;;;;5030125;28;51071;-67
2022/03/28 03:41:15;;;;;;;;;51.75;41.00;;;;;;;;5029335;28;51294;-67
2022/03/28 03:43:41;;;;;;;;;58.50;45.75;;;;;;;;5029632;28;51734;-67
2022/03/28 03:46:06;;;;;;;;;53.25;43.75;;;;;;;;5030962;28;51427;-67
2022/03/28 03:48:32;;;;;;;;;53.50;43.50;;;;;;;;5031295;28;51058;-66
2022/03/28 03:50:57;;;;;;;;;56.75;43.25;;;;;;;;5030115;28;51075;-66
2022/03/28 03:53:22;;;;;;;;;56.00;46.50;;;;;;;;5030553;28;51072;-66
2022/03/28 03:55:48;;;;;;;;;52.25;43.50;;;;;;;;5037031;28;51115;-65
2022/03/28 03:58:13;;;;;;;;;56.25;44.75;;;;;;;;5027426;28;51117;-65
2022/03/28 04:00:39;;;;;;;;;52.50;44.00;;;;;;;;5027036;28;51445;-66
2022/03/28 04:03:05;;;;;;;;;54.00;44.50;;;;;;;;5020133;28;51965;-66
2022/03/28 04:05:30;;;;;;;;;54.00;43.75;;;;;;;;5029712;28;51424;-65
2022/03/28 04:07:55;;;;;;;;;53.50;44.00;;;;;;;;5029741;28;51025;-65
2022/03/28 04:10:22;;;;;;;;;51.00;41.75;;;;;;;;5028677;28;51112;-66
2022/03/28 04:12:47;;;;;;;;;53.00;42.75;;;;;;;;5018471;28;53740;-65
2022/03/28 04:15:12;;;;;;;;;54.00;44.50;;;;;;;;5013712;28;51371;-66
2022/03/28 04:17:41;;;;;;;;;54.75;45.00;;;;;;;;5029018;28;51146;-66
2022/03/28 04:20:06;;;;;;;;;57.75;46.25;;;;;;;;5029669;28;50951;-65
2022/03/28 04:22:32;;;;;;;;;51.75;43.75;;;;;;;;5029142;28;51969;-65
2022/03/28 04:24:57;;;;;;;;;55.00;44.00;;;;;;;;5029642;28;51107;-65
2022/03/28 04:27:22;;;;;;;;;50.25;41.75;;;;;;;;5029502;28;51084;-65
2022/03/28 04:29:47;;;;;;;;;57.25;45.50;;;;;;;;5029589;28;51246;-66
2022/03/28 04:32:13;;;;;;;;;53.75;41.00;;;;;;;;5028733;28;51296;-66
2022/03/28 04:34:38;;;;;;;;;52.00;44.00;;;;;;;;5030555;28;51067;-64
2022/03/28 04:37:03;;;;;;;;;51.00;42.25;;;;;;;;5020043;28;51252;-66
2022/03/28 04:39:29;;;;;;;;;52.25;41.75;;;;;;;;5026482;28;51327;-66
2022/03/28 04:41:54;;;;;;;;;54.75;44.00;;;;;;;;5027999;28;51111;-66
2022/03/28 04:44:19;;;;;;;;;55.25;45.75;;;;;;;;5029381;28;51209;-66
2022/03/28 04:46:44;;;;;;;;;57.00;43.50;;;;;;;;5030129;28;51000;-66
2022/03/28 04:49:13;;;;;;;;;60.75;47.50;;;;;;;;5028517;28;52456;-66
2022/03/28 04:51:38;;;;;;;;;72.50;56.25;;;;;;;;5029082;28;51949;-66
2022/03/28 04:54:03;;;;;;;;;56.50;44.75;;;;;;;;5036130;28;50975;-66
2022/03/28 04:56:28;;;;;;;;;54.00;44.50;;;;;;;;5032787;28;51200;-66
2022/03/28 04:58:54;;;;;;;;;56.00;45.75;;;;;;;;5032126;28;51031;-67
2022/03/28 05:01:19;;;;;;;;;62.00;48.00;;;;;;;;5031504;28;52470;-66
2022/03/28 05:03:44;;;;;;;;;58.50;46.00;;;;;;;;5027582;28;51123;-64
2022/03/28 05:06:10;;;;;;;;;51.75;43.00;;;;;;;;5032369;28;51275;-66
2022/03/28 05:08:36;;;;;;;;;56.50;45.25;;;;;;;;5033257;28;51343;-66
2022/03/28 05:11:01;;;;;;;;;59.50;46.00;;;;;;;;5026737;28;51678;-66
2022/03/28 05:13:27;;;;;;;;;57.50;46.25;;;;;;;;5032103;28;51020;-66
2022/03/28 05:15:52;;;;;;;;;60.00;49.00;;;;;;;;5026222;28;51490;-66
2022/03/28 05:18:18;;;;;;;;;58.50;45.75;;;;;;;;5018713;28;51162;-66
2022/03/28 05:20:43;;;;;;;;;55.25;45.25;;;;;;;;5029806;28;54138;-67
2022/03/28 05:23:08;;;;;;;;;58.50;45.25;;;;;;;;5030031;28;51088;-67
2022/03/28 05:25:33;;;;;;;;;53.50;44.25;;;;;;;;5030818;28;51292;-66
2022/03/28 05:27:59;;;;;;;;;56.75;46.75;;;;;;;;5027062;28;51333;-65
2022/03/28 05:30:24;;;;;;;;;61.75;49.00;;;;;;;;5029743;28;52087;-64
2022/03/28 05:32:49;;;;;;;;;56.25;45.75;;;;;;;;5034074;28;50986;-65
2022/03/28 05:35:16;;;;;;;;;58.50;46.25;;;;;;;;5033727;28;50920;-64
2022/03/28 05:37:41;;;;;;;;;62.00;49.75;;;;;;;;5030789;28;51237;-65
2022/03/28 05:40:08;;;;;;;;;57.50;45.75;;;;;;;;5028716;28;51800;-64
2022/03/28 05:42:34;;;;;;;;;58.75;47.00;;;;;;;;5031843;28;51140;-65
2022/03/28 05:44:59;;;;;;;;;63.00;50.50;;;;;;;;5029195;28;51142;-63
2022/03/28 05:47:24;;;;;;;;;54.50;45.00;;;;;;;;5033901;28;51014;-63
2022/03/28 05:49:50;;;;;;;;;58.00;45.75;;;;;;;;5024756;28;53455;-65
2022/03/28 05:52:15;;;;;;;;;62.00;49.50;;;;;;;;5022442;28;51381;-66
2022/03/28 05:54:40;;;;;;;;;61.50;48.50;;;;;;;;5017832;28;51232;-66
2022/03/28 05:57:05;;;;;;;;;56.00;44.50;;;;;;;;5027890;28;51256;-68
2022/03/28 05:59:31;;;;;;;;;59.25;49.25;;;;;;;;5032633;28;51688;-68
2022/03/28 06:01:56;;;;;;;;;63.50;48.50;;;;;;;;5027118;28;51004;-70
2022/03/28 06:04:21;;;;;;;;;54.00;43.75;;;;;;;;5030168;28;51119;-68
2022/03/28 06:06:47;;;;;;;;;59.50;47.25;;;;;;;;5017625;28;52143;-68
2022/03/28 06:09:12;;;;;;;;;55.75;44.25;;;;;;;;5029187;28;51757;-67
2022/03/28 06:11:38;;;;;;;;;61.75;48.75;;;;;;;;5028414;28;51051;-66
2022/03/28 06:14:04;;;;;;;;;56.75;47.25;;;;;;;;5030580;28;51214;-66
2022/03/28 06:16:29;;;;;;;;;63.25;49.50;;;;;;;;5026944;28;51016;-69
2022/03/28 06:18:54;;;;;;;;;62.25;49.25;;;;;;;;5029630;28;51894;-69
2022/03/28 06:21:19;;;;;;;;;56.75;46.25;;;;;;;;5024121;28;51009;-68
2022/03/28 06:23:45;;;;;;;;;56.25;46.00;;;;;;;;5029818;28;51158;-69
2022/03/28 06:26:10;;;;;;;;;56.00;46.00;;;;;;;;5026730;28;51082;-69
2022/03/28 06:28:36;;;;;;;;;57.00;46.75;;;;;;;;5021707;28;50913;-69
2022/03/28 06:31:01;;;;;;;;;59.50;48.00;;;;;;;;5031651;28;51076;-70
2022/03/28 06:33:27;;;;;;;;;61.00;49.25;;;;;;;;5020291;28;51419;-69
2022/03/28 06:35:56;;;;;;;;;63.00;49.75;;;;;;;;5027200;28;50961;-68
2022/03/28 06:38:21;;;;;;;;;59.00;46.25;;;;;;;;5026758;28;52282;-69
2022/03/28 06:40:46;;;;;;;;;61.50;46.25;;;;;;;;5024684;28;51063;-70
2022/03/28 06:43:12;;;;;;;;;54.75;43.00;;;;;;;;5029691;28;51250;-72
2022/03/28 06:45:37;;;;;;;;;62.75;48.00;;;;;;;;5020388;28;51895;-69
2022/03/28 06:48:03;;;;;;;;;62.75;47.75;;;;;;;;5032426;28;50936;-69
2022/03/28 06:50:29;;;;;;;;;60.00;48.00;;;;;;;;5031794;28;51128;-69
2022/03/28 06:52:54;;;;;;;;;57.75;46.00;;;;;;;;5030029;28;51644;-69
2022/03/28 06:55:20;;;;;;;;;58.25;46.75;;;;;;;;5032486;28;51020;-70
2022/03/28 06:57:46;;;;;;;;;61.00;47.75;;;;;;;;5031687;28;51919;-69
2022/03/28 07:00:12;;;;;;;;;61.00;49.50;;;;;;;;5030307;28;51080;-69
2022/03/28 07:02:38;;;;;;;;;65.00;50.00;;;;;;;;5017669;28;51106;-69
2022/03/28 07:05:04;;;;;;;;;61.25;47.75;;;;;;;;5015931;28;51143;-70
2022/03/28 07:07:37;;;;;;;;;61.00;47.75;;;;;;;;5031114;28;52311;-70
2022/03/28 07:10:02;;;;;;;;;57.00;46.00;;;;;;;;5027160;28;51785;-70
2022/03/28 07:12:28;;;;;;;;;60.00;48.00;;;;;;;;5029280;28;51893;-70
2022/03/28 07:14:53;;;;;;;;;57.75;46.25;;;;;;;;5027959;28;51372;-69
2022/03/28 07:17:19;;;;;;;;;58.25;46.00;;;;;;;;5025957;28;51268;-70
2022/03/28 07:19:46;;;;;;;;;56.25;45.00;;;;;;;;5028672;28;51172;-69
2022/03/28 07:22:11;;;;;;;;;58.25;44.50;;;;;;;;5029473;28;51060;-69
2022/03/28 07:24:37;;;;;;;;;58.25;46.25;;;;;;;;5036860;28;51492;-70
2022/03/28 07:27:02;;;;;;;;;59.25;45.50;;;;;;;;5028675;28;52775;-69
2022/03/28 07:29:27;;;;;;;;;58.25;47.25;;;;;;;;5021537;28;50866;-69
2022/03/28 07:31:54;;;;;;;;;57.50;46.00;;;;;;;;5030946;28;50842;-70
2022/03/28 07:34:33;;;;;;;;;60.50;46.00;;;;;;;;5019956;28;50936;-68
2022/03/28 07:36:59;;;;;;;;;57.25;47.00;;;;;;;;5018546;28;52705;-69
2022/03/28 07:39:24;;;;;;;;;56.50;45.00;;;;;;;;5016431;28;51095;-70
2022/03/28 07:41:50;;;;;;;;;58.75;46.75;;;;;;;;5030203;28;51139;-70
2022/03/28 07:44:16;;;;;;;;;59.25;48.00;;;;;;;;5029893;28;50968;-69
2022/03/28 07:46:41;;;;;;;;;54.50;44.25;;;;;;;;5027912;28;54218;-70
2022/03/28 07:49:07;;;;;;;;;60.75;47.75;;;;;;;;5025443;28;51020;-70
2022/03/28 07:51:32;;;;;;;;;59.50;48.25;;;;;;;;5023915;28;51160;-70
2022/03/28 07:53:58;;;;;;;;;57.50;46.75;;;;;;;;5026332;28;51319;-69
2022/03/28 07:56:23;;;;;;;;;56.25;47.00;;;;;;;;5025911;28;52582;-69
2022/03/28 07:58:48;;;;;;;;;53.50;43.50;;;;;;;;5016637;28;50913;-68
2022/03/28 08:01:13;;;;;;;;;57.75;46.25;;;;;;;;5022286;28;51066;-69
2022/03/28 08:03:39;;;;;;;;;49.00;41.75;;;;;;;;5028097;28;50995;-70
2022/03/28 08:06:04;;;;;;;;;54.75;45.50;;;;;;;;5027702;28;51604;-69
2022/03/28 08:08:31;;;;;;;;;53.00;44.25;;;;;;;;4989682;28;1169846;-69
2022/03/28 08:10:57;;;;;;;;;57.00;46.00;;;;;;;;5029911;28;51183;-69
2022/03/28 08:13:22;;;;;;;;;55.00;45.00;;;;;;;;5032064;28;51288;-70
2022/03/28 08:15:48;;;;;;;;;56.25;45.50;;;;;;;;5029950;28;51814;-70
2022/03/28 08:18:15;;;;;;;;;57.25;46.50;;;;;;;;5030983;28;51025;-70
2022/03/28 08:20:40;;;;;;;;;55.50;45.00;;;;;;;;5030961;28;51036;-68
2022/03/28 08:23:06;;;;;;;;;57.50;46.00;;;;;;;;5030277;28;50987;-70
2022/03/28 08:25:32;;;;;;;;;59.50;45.00;;;;;;;;5030382;28;52983;-69
2022/03/28 08:27:58;;;;;;;;;56.50;46.25;;;;;;;;5033700;28;50854;-71
2022/03/28 08:30:23;;;;;;;;;57.00;46.25;;;;;;;;5019764;28;51263;-69
2022/03/28 08:32:48;;;;;;;;;54.75;45.00;;;;;;;;5031789;28;50891;-69
2022/03/28 08:35:14;;;;;;;;;61.00;48.75;;;;;;;;5032617;28;51043;-70
2022/03/28 08:37:39;;;;;;;;;61.50;49.50;;;;;;;;5031043;28;51294;-70
2022/03/28 08:40:05;;;;;;;;;60.00;47.75;;;;;;;;5033620;28;51099;-69
2022/03/28 08:42:33;;;;;;;;;56.75;46.25;;;;;;;;5032482;28;51362;-71
2022/03/28 08:44:58;;;;;;;;;61.25;48.00;;;;;;;;5034698;28;51099;-70
2022/03/28 08:47:23;;;;;;;;;60.00;48.00;;;;;;;;5034011;28;51054;-70
2022/03/28 08:49:49;;;;;;;;;59.00;47.50;;;;;;;;5031221;28;51089;-71
2022/03/28 08:52:16;;;;;;;;;62.25;50.75;;;;;;;;5029099;28;51350;-70
2022/03/28 08:54:41;;;;;;;;;60.75;48.50;;;;;;;;5036974;28;51878;-70
2022/03/28 08:57:06;;;;;;;;;56.00;45.00;;;;;;;;5031757;28;51047;-71
2022/03/28 08:59:32;;;;;;;;;56.75;46.75;;;;;;;;5033639;28;51140;-70
2022/03/28 09:01:57;;;;;;;;;57.00;46.75;;;;;;;;5033685;28;50972;-70
2022/03/28 09:04:23;;;;;;;;;56.00;46.00;;;;;;;;5018587;28;51366;-69
2022/03/28 09:06:48;;;;;;;;;55.50;44.75;;;;;;;;5033143;28;51033;-70
2022/03/28 09:09:21;;;;;;;;;57.50;45.50;;;;;;;;5029181;28;50976;-71
2022/03/28 09:11:52;;;;;;;;;65.50;51.00;;;;;;;;5032174;28;51005;-70
2022/03/28 09:14:28;;;;;;;;;60.00;47.75;;;;;;;;5031667;28;52130;-70
2022/03/28 09:17:04;;;;;;;;;59.50;47.50;;;;;;;;5030102;28;51158;-71
2022/03/28 09:19:50;;;;;;;;;58.75;46.50;;;;;;;;5031234;28;50987;-70
2022/03/28 09:22:15;;;;;;;;;53.50;44.25;;;;;;;;5025258;28;51539;-70
2022/03/28 09:24:41;;;;;;;;;55.50;45.75;;;;;;;;5025833;28;51914;-70
2022/03/28 09:27:11;;;;;;;;;61.00;49.00;;;;;;;;5029298;28;51144;-71
2022/03/28 09:29:51;;;;;;;;;55.75;45.50;;;;;;;;5049674;28;51031;-70
2022/03/28 09:32:21;;;;;;;;;55.75;44.25;;;;;;;;5023484;28;51212;-71
2022/03/28 09:35:00;;;;;;;;;55.50;46.00;;;;;;;;5029663;28;52911;-70
2022/03/28 09:37:26;;;;;;;;;56.75;46.25;;;;;;;;5027492;28;52009;-72
2022/03/28 09:39:51;;;;;;;;;59.00;47.00;;;;;;;;5026209;28;51171;-69
2022/03/28 09:42:17;;;;;;;;;55.00;44.50;;;;;;;;5033622;28;51296;-70
2022/03/28 09:44:47;;;;;;;;;54.00;44.25;;;;;;;;5032164;28;51364;-70
2022/03/28 09:47:17;;;;;;;;;59.00;48.00;;;;;;;;5033503;28;50848;-71
2022/03/28 09:49:43;;;;;;;;;56.25;45.50;;;;;;;;5031827;28;51171;-69
2022/03/28 09:52:12;;;;;;;;;57.75;46.00;;;;;;;;5032783;28;51332;-71
2022/03/28 09:54:47;;;;;;;;;54.75;44.50;;;;;;;;5026665;28;51901;-69
2022/03/28 09:57:13;;;;;;;;;59.25;45.75;;;;;;;;5017741;28;50986;-71
2022/03/28 09:59:42;;;;;;;;;52.00;43.25;;;;;;;;5032068;28;51078;-70
2022/03/28 10:02:14;;;;;;;;;54.50;45.00;;;;;;;;5030819;28;51041;-70
2022/03/28 10:04:40;;;;;;;;;56.50;44.75;;;;;;;;5023928;28;53491;-71
2022/03/28 10:07:06;;;;;;;;;50.50;41.75;;;;;;;;5031182;28;51204;-69
2022/03/28 10:09:31;;;;;;;;;53.75;43.25;;;;;;;;5030707;28;50991;-71
2022/03/28 10:11:57;;;;;;;;;51.25;42.50;;;;;;;;5029165;28;51128;-72
2022/03/28 10:14:23;;;;;;;;;50.00;41.75;;;;;;;;5030142;28;51969;-69
2022/03/28 10:16:49;;;;;;;;;51.00;42.50;;;;;;;;5031725;28;51214;-70
2022/03/28 10:19:15;;;;;;;;;46.75;39.00;;;;;;;;5033136;28;51070;-71
2022/03/28 10:21:40;;;;;;;;;48.25;39.25;;;;;;;;5031465;28;51253;-71
2022/03/28 10:24:11;;;;;;;;;51.00;41.50;;;;;;;;5030738;28;51212;-70
2022/03/28 10:26:38;;;;;;;;;47.75;40.25;;;;;;;;5031327;28;51616;-70
2022/03/28 10:29:05;;;;;;;;;48.25;39.75;;;;;;;;5028856;28;50997;-70
2022/03/28 10:31:32;;;;;;;;;40.00;34.75;;;;;;;;5033077;28;51322;-69
2022/03/28 10:33:57;;;;;;;;;46.00;37.75;;;;;;;;5023686;28;51073;-70
2022/03/28 10:36:24;;;;;;;;;37.00;32.00;;;;;;;;5029567;28;51464;-69
2022/03/28 10:38:52;;;;;;;;;45.75;37.25;;;;;;;;5027597;28;51147;-70
2022/03/28 10:41:19;;;;;;;;;48.25;39.50;;;;;;;;5026524;28;51912;-69
2022/03/28 10:43:44;;;;;;;;;44.75;37.00;;;;;;;;5029968;28;51675;-69
2022/03/28 10:46:10;;;;;;;;;40.75;34.50;;;;;;;;5031186;28;51392;-69
2022/03/28 10:48:43;;;;;;;;;46.25;38.50;;;;;;;;5031591;28;51217;-69
2022/03/28 10:51:13;;;;;;;;;42.25;35.00;;;;;;;;5029707;28;50989;-69
2022/03/28 10:53:40;;;;;;;;;44.50;35.00;;;;;;;;5031648;28;51301;-69
2022/03/28 10:56:14;;;;;;;;;43.00;36.25;;;;;;;;5014375;28;51058;-69
2022/03/28 10:58:43;;;;;;;;;36.75;32.00;;;;;;;;5026661;28;51092;-70
2022/03/28 11:01:09;;;;;;;;;29.50;28.50;;;;;;;;5020868;28;50934;-70
2022/03/28 11:03:53;;;;;;;;;35.50;32.00;;;;;;;;5017827;28;52135;-68
2022/03/28 11:06:38;;;;;;;;;34.25;31.00;;;;;;;;5022786;28;51044;-69
2022/03/28 11:09:04;;;;;;;;;35.00;31.00;;;;;;;;5011308;28;51172;-69
2022/03/28 11:11:31;;;;;;;;;30.00;29.00;;;;;;;;5012808;28;51275;-70
2022/03/28 11:13:59;;;;;;;;;32.00;30.00;;;;;;;;5010978;28;52899;-68
2022/03/28 11:16:39;;;;;;;;;35.50;31.75;;;;;;;;5012029;28;50989;-70
2022/03/28 11:19:23;;;;;;;;;32.75;30.25;;;;;;;;5012363;28;50935;-70
2022/03/28 11:21:56;;;;;;;;;38.25;32.25;;;;;;;;5012598;28;51137;-69
2022/03/28 11:24:40;;;;;;;;;32.25;30.25;;;;;;;;5012112;28;51087;-68
2022/03/28 11:27:05;;;;;;;;;34.75;32.50;;;;;;;;5020560;28;50969;-69
2022/03/28 11:29:30;;;;;;;;;34.25;30.75;;;;;;;;5032508;28;51174;-69
2022/03/28 11:31:56;;;;;;;;;34.75;30.00;;;;;;;;5032818;28;50987;-69
2022/03/28 11:34:22;;;;;;;;;36.00;32.50;;;;;;;;5031840;28;52324;-68
2022/03/28 11:36:47;;;;;;;;;36.50;32.00;;;;;;;;5032636;28;50969;-68
2022/03/28 11:39:16;;;;;;;;;37.25;32.00;;;;;;;;5031875;28;51757;-70
2022/03/28 11:41:41;;;;;;;;;33.50;30.75;;;;;;;;5032326;28;50931;-69
2022/03/28 11:44:10;;;;;;;;;34.00;32.00;;;;;;;;5031738;28;52562;-68
2022/03/28 11:46:36;;;;;;;;;43.00;35.50;;;;;;;;5031747;28;51046;-69
2022/03/28 11:49:04;;;;;;;;;39.25;33.50;;;;;;;;5031935;28;51037;-69
2022/03/28 11:51:30;;;;;;;;;39.50;33.00;;;;;;;;5031897;28;51091;-69
2022/03/28 11:53:59;;;;;;;;;42.75;32.50;;;;;;;;5029403;28;51208;-69
2022/03/28 11:56:26;;;;;;;;;38.50;33.50;;;;;;;;5012004;28;51113;-68
2022/03/28 11:58:58;;;;;;;;;32.25;30.25;;;;;;;;5011766;28;51177;-69
2022/03/28 12:01:24;;;;;;;;;35.50;31.50;;;;;;;;5022124;28;51088;-69
2022/03/28 12:03:50;;;;;;;;;26.75;26.75;;;;;;;;5013201;28;54079;-69
2022/03/28 12:06:29;;;;;;;;;32.25;30.25;;;;;;;;5017318;28;51092;-70
2022/03/28 12:08:55;;;;;;;;;33.75;32.00;;;;;;;;5012553;28;51001;-69
2022/03/28 12:11:22;;;;;;;;;26.25;25.25;;;;;;;;5011930;28;51327;-69
2022/03/28 12:13:47;;;;;;;;;30.50;30.00;;;;;;;;5010904;28;52295;-69
2022/03/28 12:16:13;;;;;;;;;25.50;25.25;;;;;;;;5011243;28;50957;-69
2022/03/28 12:18:38;;;;;;;;;29.50;27.25;;;;;;;;5011297;28;50937;-69
2022/03/28 12:21:03;;;;;;;;;16.67;15.67;;;;;;;;5011671;28;51111;-69
2022/03/28 12:23:28;;;;;;;;;26.00;25.25;;;;;;;;5011033;28;51134;-69
2022/03/28 12:25:55;;;;;;;;;25.00;24.25;;;;;;;;5011196;28;50985;-68
2022/03/28 12:28:33;;;;;;;;;29.25;26.75;;;;;;;;5011402;28;51014;-69
2022/03/28 12:30:59;;;;;;;;;26.00;25.75;;;;;;;;5011629;28;51189;-68
2022/03/28 12:33:26;;;;;;;;;33.00;28.75;;;;;;;;5009778;28;51948;-69
2022/03/28 12:35:53;;;;;;;;;25.00;22.75;;;;;;;;5011875;28;51030;-71
2022/03/28 12:38:20;;;;;;;;;28.50;27.25;;;;;;;;5030751;28;51135;-69
2022/03/28 12:40:49;;;;;;;;;30.75;30.00;;;;;;;;5031121;28;51246;-69
2022/03/28 12:43:14;;;;;;;;;26.67;25.00;;;;;;;;5030934;28;51782;-68
2022/03/28 12:45:42;;;;;;;;;28.00;27.00;;;;;;;;5030689;28;51327;-69
2022/03/28 12:48:07;;;;;;;;;25.00;24.33;;;;;;;;5031103;28;51243;-69
2022/03/28 12:50:34;;;;;;;;;30.25;27.25;;;;;;;;5031032;28;51055;-69
2022/03/28 12:53:08;;;;;;;;;23.25;22.00;;;;;;;;5031063;28;50928;-69
2022/03/28 12:55:34;;;;;;;;;23.00;22.50;;;;;;;;5015939;28;51014;-69
2022/03/28 12:58:00;;;;;;;;;29.00;26.67;;;;;;;;5011406;28;51094;-68
2022/03/28 13:00:26;;;;;;;;;24.25;22.75;;;;;;;;5011650;28;51060;-69
2022/03/28 13:02:53;;;;;;;;;32.25;29.25;;;;;;;;5020145;28;53214;-69
2022/03/28 13:05:18;;;;;;;;;25.75;24.50;;;;;;;;5019795;28;50967;-69
2022/03/28 13:07:44;;;;;;;;;23.75;21.50;;;;;;;;5010776;28;50855;-69
2022/03/28 13:10:14;;;;;;;;;29.50;26.25;;;;;;;;5010797;28;50821;-69
2022/03/28 13:12:44;;;;;;;;;32.75;29.25;;;;;;;;5009826;28;53381;-68
2022/03/28 13:15:21;;;;;;;;;28.25;26.25;;;;;;;;5014121;28;50881;-68
2022/03/28 13:17:48;;;;;;;;;33.25;30.50;;;;;;;;5014305;28;50870;-70
2022/03/28 13:20:17;;;;;;;;;21.75;21.00;;;;;;;;5014518;28;51300;-69
2022/03/28 13:22:45;;;;;;;;;22.75;22.75;;;;;;;;5014165;28;50962;-70
2022/03/28 13:25:16;;;;;;;;;25.50;23.50;;;;;;;;5012053;28;51160;-68
2022/03/28 13:30:27;;;;;;;;;30.00;25.75;;;;;;;;5034158;28;51126;-69
2022/03/28 13:32:52;;;;;;;;;28.00;25.50;;;;;;;;5033384;28;51081;-69
2022/03/28 13:35:17;;;;;;;;;24.75;22.50;;;;;;;;5033768;28;51051;-70
2022/03/28 13:37:52;;;;;;;;;24.75;22.25;;;;;;;;5033046;28;51068;-69
2022/03/28 13:40:18;;;;;;;;;24.00;22.00;;;;;;;;5034087;28;50998;-68
2022/03/28 13:42:44;;;;;;;;;25.50;24.25;;;;;;;;5031884;28;52139;-69
2022/03/28 13:45:09;;;;;;;;;21.50;20.25;;;;;;;;5034117;28;51109;-70
2022/03/28 13:47:34;;;;;;;;;28.00;24.50;;;;;;;;5033613;28;51061;-68
2022/03/28 13:50:00;;;;;;;;;26.75;25.50;;;;;;;;5032751;28;50902;-69
2022/03/28 13:52:25;;;;;;;;;18.33;16.00;;;;;;;;5029336;28;52167;-69
2022/03/28 13:54:50;;;;;;;;;28.25;26.50;;;;;;;;5024067;28;50987;-69
2022/03/28 13:57:16;;;;;;;;;32.00;29.50;;;;;;;;5013856;28;51132;-70
2022/03/28 13:59:41;;;;;;;;;27.25;22.75;;;;;;;;5012109;28;50910;-68
2022/03/28 14:02:07;;;;;;;;;27.00;25.50;;;;;;;;5026743;28;50982;-69
2022/03/28 14:04:32;;;;;;;;;27.25;24.50;;;;;;;;5028671;28;50968;-69
2022/03/28 14:06:58;;;;;;;;;24.00;23.00;;;;;;;;5033246;28;51205;-69
2022/03/28 14:09:23;;;;;;;;;14.00;11.25;;;;;;;;5033113;28;50954;-69
2022/03/28 14:11:48;;;;;;;;;26.75;24.00;;;;;;;;5032961;28;51759;-69
2022/03/28 14:14:13;;;;;;;;;25.00;24.25;;;;;;;;5031842;28;51103;-68